Time;durP1;ratioP1;P1;durP2;ratioP2;P2;SDS_P1;SDS_P2;PMS_P1;PMS_P2;Temp;Humidity;BMP_temperature;BMP_pressure;BME280_temperature;BME280_humidity;BME280_pressure;Samples;Min_cycle;Max_cycle;Signal;HPM_P1;HPM_P2
2021/12/26 00:00:42;;;;;;;;;19.50;19.50;;;;;12.60;71.47;99985.22;5080213;28;46976;-69
2021/12/26 00:03:07;;;;;;;;;20.50;17.25;;;;;12.61;71.76;99986.09;5081488;28;45352;-69
2021/12/26 00:05:33;;;;;;;;;23.75;20.25;;;;;12.61;71.55;99978.06;5081862;28;45307;-69
2021/12/26 00:07:59;;;;;;;;;15.25;12.75;;;;;12.62;71.54;99979.78;5081424;28;45247;-69
2021/12/26 00:10:26;;;;;;;;;23.50;20.25;;;;;12.60;71.50;99979.03;5081208;28;45225;-69
2021/12/26 00:12:52;;;;;;;;;26.00;19.00;;;;;12.59;71.66;99977.28;5081343;28;45499;-69
2021/12/26 00:15:18;;;;;;;;;19.25;18.75;;;;;12.56;71.47;99983.69;5081353;28;45350;-69
2021/12/26 00:17:43;;;;;;;;;20.00;17.75;;;;;12.55;71.49;99973.91;5081421;28;45307;-69
2021/12/26 00:20:11;;;;;;;;;20.00;18.00;;;;;12.57;71.77;99980.03;5081099;28;45404;-69
2021/12/26 00:22:38;;;;;;;;;18.00;16.50;;;;;12.59;71.60;99983.47;5081265;28;45373;-69
2021/12/26 00:25:05;;;;;;;;;22.50;20.75;;;;;12.59;71.54;99977.28;5081412;28;45492;-69
2021/12/26 00:27:31;;;;;;;;;24.25;21.00;;;;;12.57;71.44;99977.34;5081375;28;45506;-69
2021/12/26 00:29:56;;;;;;;;;21.00;20.00;;;;;12.52;71.50;99962.50;5080746;28;45447;-69
2021/12/26 00:32:22;;;;;;;;;14.00;11.25;;;;;12.57;71.29;99971.16;5081118;28;45157;-69
2021/12/26 00:34:50;;;;;;;;;19.50;16.75;;;;;12.55;71.37;99973.03;5081363;28;45274;-69
2021/12/26 00:37:16;;;;;;;;;19.00;17.75;;;;;12.50;71.53;99962.56;5081047;28;45323;-69
2021/12/26 00:39:41;;;;;;;;;19.25;18.50;;;;;12.51;71.86;99956.28;5081230;28;46276;-69
2021/12/26 00:42:07;;;;;;;;;20.00;17.75;;;;;12.53;71.36;99964.19;5080482;28;45362;-69
2021/12/26 00:44:38;;;;;;;;;23.75;18.25;;;;;12.56;71.45;99956.00;5080899;28;45453;-69
2021/12/26 00:47:04;;;;;;;;;19.00;17.25;;;;;12.53;71.39;99958.84;5080844;28;45382;-69
2021/12/26 00:49:29;;;;;;;;;19.50;16.50;;;;;12.52;71.35;99954.47;5080654;28;45373;-69
2021/12/26 00:51:54;;;;;;;;;21.25;18.25;;;;;12.49;71.53;99944.78;5080795;28;45288;-69
2021/12/26 00:54:20;;;;;;;;;15.25;15.25;;;;;12.52;71.43;99955.31;5080718;28;45303;-69
2021/12/26 00:56:46;;;;;;;;;27.00;22.50;;;;;12.53;71.56;99956.16;5080911;28;45288;-69
2021/12/26 00:59:11;;;;;;;;;25.75;23.50;;;;;12.49;71.56;99960.81;5059181;28;47128;-69
2021/12/26 01:01:37;;;;;;;;;23.00;21.75;;;;;12.55;71.42;99967.69;5080531;28;45264;-69
2021/12/26 01:04:03;;;;;;;;;30.75;27.00;;;;;12.55;71.75;99971.22;5080767;28;45318;-69
2021/12/26 01:06:28;;;;;;;;;30.00;27.00;;;;;12.54;71.71;99961.44;5080867;28;45245;-69
2021/12/26 01:08:54;;;;;;;;;36.50;27.50;;;;;12.55;71.62;99960.50;5080457;28;45239;-69
2021/12/26 01:11:34;;;;;;;;;30.50;30.50;;;;;12.56;71.43;99967.63;5080515;28;45325;-69
2021/12/26 01:14:00;;;;;;;;;23.50;21.75;;;;;12.53;71.47;99962.41;5080715;28;45358;-69
2021/12/26 01:16:28;;;;;;;;;29.50;26.25;;;;;12.55;71.38;99960.50;5080443;28;45554;-69
2021/12/26 01:19:00;;;;;;;;;39.25;31.50;;;;;12.53;71.35;99962.41;5080368;28;45461;-69
2021/12/26 01:21:26;;;;;;;;;32.25;28.75;;;;;12.57;71.39;99968.47;5080392;28;45627;-69
2021/12/26 01:23:55;;;;;;;;;30.00;25.50;;;;;12.58;71.52;99972.88;5080491;28;45245;-69
2021/12/26 01:26:21;;;;;;;;;28.75;27.75;;;;;12.57;71.46;99966.66;5080268;28;46040;-69
2021/12/26 01:28:47;;;;;;;;;30.25;28.75;;;;;12.54;71.44;99965.94;5080363;28;46584;-69
2021/12/26 01:31:19;;;;;;;;;24.75;22.50;;;;;12.58;71.31;99967.53;5079856;28;45217;-69
2021/12/26 01:33:46;;;;;;;;;20.50;19.25;;;;;12.57;71.33;99957.75;5080376;28;45278;-69
2021/12/26 01:36:12;;;;;;;;;21.00;19.75;;;;;12.54;71.32;99958.78;5080250;28;45493;-69
2021/12/26 01:38:37;;;;;;;;;21.75;19.00;;;;;12.56;71.37;99956.91;5079995;28;45222;-69
2021/12/26 01:41:09;;;;;;;;;18.25;17.00;;;;;12.57;71.35;99963.13;5080151;28;45445;-69
2021/12/26 01:43:35;;;;;;;;;17.75;17.50;;;;;12.57;71.40;99955.94;5080304;28;45332;-69
2021/12/26 01:46:00;;;;;;;;;19.50;18.00;;;;;12.58;71.35;99952.31;5079907;28;45728;-69
2021/12/26 01:48:26;;;;;;;;;24.00;21.00;;;;;12.58;71.01;99960.34;5079799;28;46065;-69
2021/12/26 01:50:53;;;;;;;;;20.25;18.50;;;;;12.53;71.36;99950.81;5080129;28;45166;-69
2021/12/26 01:53:22;;;;;;;;;21.25;18.25;;;;;12.53;70.94;99958.84;5078525;28;45495;-69
2021/12/26 01:55:49;;;;;;;;;25.00;20.00;;;;;12.51;71.37;99948.25;5083220;28;45449;-69
2021/12/26 01:58:26;;;;;;;;;27.75;25.75;;;;;12.49;71.20;99951.94;5083452;28;46450;-69
2021/12/26 02:01:01;;;;;;;;;15.50;13.25;;;;;12.49;71.23;99949.25;5081925;28;45478;-69
2021/12/26 02:03:27;;;;;;;;;17.00;16.00;;;;;12.48;71.36;99953.75;5083855;28;45208;-69
2021/12/26 02:05:53;;;;;;;;;20.50;17.75;;;;;12.48;71.40;99952.88;5083427;28;45230;-69
2021/12/26 02:08:18;;;;;;;;;18.25;16.50;;;;;12.47;71.42;99957.38;5083589;28;46241;-69
2021/12/26 02:10:44;;;;;;;;;22.50;19.25;;;;;12.46;71.42;99963.66;5083126;28;45272;-69
2021/12/26 02:13:10;;;;;;;;;21.25;18.50;;;;;12.43;71.67;99958.50;5083600;28;45346;-69
2021/12/26 02:15:36;;;;;;;;;19.25;18.75;;;;;12.46;71.56;99970.84;5082959;28;45404;-69
2021/12/26 02:18:04;;;;;;;;;24.25;21.75;;;;;12.41;71.40;99963.03;5083393;28;45453;-69
2021/12/26 02:20:49;;;;;;;;;18.25;15.75;;;;;12.38;71.61;99961.41;5083187;28;45169;-69
2021/12/26 02:23:25;;;;;;;;;27.25;22.50;;;;;12.42;71.59;99964.78;5083426;28;45446;-69
2021/12/26 02:28:24;;;;;;;;;27.75;25.50;;;;;12.45;71.60;99966.44;5083058;28;45501;-69
2021/12/26 02:30:51;;;;;;;;;26.25;24.00;;;;;12.45;71.73;99959.28;5082806;28;45432;-69
2021/12/26 02:33:18;;;;;;;;;23.50;22.50;;;;;12.46;71.64;99955.63;5083036;28;45285;-69
2021/12/26 02:35:44;;;;;;;;;21.75;20.50;;;;;12.45;71.68;99963.78;5083178;28;45216;-69
2021/12/26 02:38:11;;;;;;;;;22.25;22.00;;;;;12.45;71.59;99953.06;5082751;28;45272;-69
2021/12/26 02:40:37;;;;;;;;;26.00;23.25;;;;;12.42;71.79;99956.75;5082896;28;45303;-69
2021/12/26 02:43:04;;;;;;;;;26.75;23.50;;;;;12.33;71.21;99947.41;5082955;28;45256;-69
2021/12/26 02:45:31;;;;;;;;;21.25;21.00;;;;;12.41;71.57;99955.00;5082755;28;45453;-69
2021/12/26 02:47:57;;;;;;;;;18.75;18.50;;;;;12.41;71.48;99947.88;5082629;28;46085;-69
2021/12/26 02:50:27;;;;;;;;;18.75;16.50;;;;;12.41;71.62;99946.97;5082660;28;45355;-69
2021/12/26 02:52:54;;;;;;;;;21.25;20.00;;;;;12.39;71.78;99944.38;5082503;28;45446;-69
2021/12/26 02:55:21;;;;;;;;;20.00;18.50;;;;;12.40;71.72;99942.59;5082804;28;45418;-69
2021/12/26 02:57:48;;;;;;;;;18.50;18.25;;;;;12.34;71.56;99938.41;5082586;28;45181;-69
2021/12/26 03:00:16;;;;;;;;;24.00;20.25;;;;;12.37;71.62;99935.56;5082347;28;45268;-69
2021/12/26 03:02:43;;;;;;;;;23.50;18.75;;;;;12.37;71.75;99948.09;5082686;28;45323;-69
2021/12/26 03:05:09;;;;;;;;;19.25;17.25;;;;;12.32;71.61;99947.47;5082475;28;45249;-69
2021/12/26 03:07:34;;;;;;;;;21.00;19.50;;;;;12.32;71.75;99944.81;5082337;28;45219;-69
2021/12/26 03:10:00;;;;;;;;;23.50;21.50;;;;;12.28;71.92;99933.41;5082573;28;45373;-69
2021/12/26 03:12:28;;;;;;;;;23.00;20.75;;;;;12.32;71.91;99944.81;5082221;28;45486;-69
2021/12/26 03:14:54;;;;;;;;;15.50;15.50;;;;;12.30;71.79;99939.53;5082437;28;45336;-69
2021/12/26 03:17:20;;;;;;;;;21.00;18.00;;;;;12.30;71.60;99939.53;5082298;28;46466;-69
2021/12/26 03:19:46;;;;;;;;;19.25;17.25;;;;;12.31;71.74;99945.75;5082418;28;45490;-69
2021/12/26 03:22:11;;;;;;;;;22.25;19.00;;;;;12.33;71.83;99947.41;5082324;28;45266;-69
2021/12/26 03:24:38;;;;;;;;;24.50;21.25;;;;;12.30;71.84;99933.31;5082391;28;45313;-69
2021/12/26 03:27:05;;;;;;;;;16.75;16.75;;;;;12.34;71.67;99942.91;5082006;28;45982;-69
2021/12/26 03:29:32;;;;;;;;;13.00;13.00;;;;;12.34;71.57;99942.91;5081979;28;45248;-68
2021/12/26 03:31:57;;;;;;;;;22.50;20.75;;;;;12.29;71.75;99936.94;5082134;28;45170;-69
2021/12/26 03:34:23;;;;;;;;;19.75;19.25;;;;;12.29;71.71;99943.13;5082324;28;45307;-69
2021/12/26 03:36:52;;;;;;;;;21.75;16.50;;;;;12.30;71.82;99947.56;5081854;28;45256;-69
2021/12/26 03:39:18;;;;;;;;;22.25;19.25;;;;;12.29;71.86;99945.81;5082159;28;45315;-69
2021/12/26 03:41:44;;;;;;;;;22.25;18.00;;;;;12.30;71.92;99947.56;5081940;28;45399;-69
2021/12/26 03:44:09;;;;;;;;;26.75;22.75;;;;;12.29;71.82;99942.28;5082247;28;45264;-69
2021/12/26 03:46:34;;;;;;;;;22.75;21.25;;;;;12.30;71.90;99942.22;5081616;28;45358;-69
2021/12/26 03:49:04;;;;;;;;;23.50;22.50;;;;;12.26;71.57;99929.91;5081563;28;45251;-69
2021/12/26 03:51:29;;;;;;;;;18.75;17.75;;;;;12.28;71.91;99932.50;5081949;28;45401;-69
2021/12/26 03:53:55;;;;;;;;;22.75;19.25;;;;;12.29;71.80;99936.94;5081569;28;45221;-69
2021/12/26 03:56:21;;;;;;;;;22.25;21.00;;;;;12.30;71.76;99942.22;5081481;28;46493;-69
2021/12/26 03:58:46;;;;;;;;;27.50;24.00;;;;;12.30;71.72;99933.31;5081783;28;45349;-69
2021/12/26 04:01:11;;;;;;;;;22.00;21.00;;;;;12.23;71.73;99924.75;5081634;28;45282;-69
2021/12/26 04:03:37;;;;;;;;;19.25;17.50;;;;;12.26;71.71;99931.75;5081804;28;45483;-69
2021/12/26 04:06:02;;;;;;;;;21.25;21.25;;;;;12.15;71.47;99918.94;5081512;28;45643;-69
2021/12/26 04:08:28;;;;;;;;;23.00;17.75;;;;;12.16;71.62;99921.53;5081628;28;45414;-69
2021/12/26 04:10:53;;;;;;;;;24.50;22.00;;;;;12.17;71.78;99917.03;5081479;28;45299;-69
2021/12/26 04:13:19;;;;;;;;;20.75;17.75;;;;;12.17;71.90;99917.91;5081467;28;45283;-69
2021/12/26 04:15:44;;;;;;;;;24.00;23.00;;;;;12.15;72.00;99917.13;5081172;28;45826;-69
2021/12/26 04:18:10;;;;;;;;;23.75;23.50;;;;;12.20;71.83;99920.41;5080810;28;45838;-69
2021/12/26 04:20:35;;;;;;;;;19.75;18.50;;;;;12.21;72.11;99913.25;5081437;28;45245;-69
2021/12/26 04:23:01;;;;;;;;;22.00;19.25;;;;;12.20;71.61;99916.88;5081490;28;45303;-69
2021/12/26 04:25:27;;;;;;;;;22.00;21.25;;;;;12.21;72.53;99915.91;5081064;28;45300;-69
2021/12/26 04:27:54;;;;;;;;;25.50;22.50;;;;;12.21;71.93;99914.13;5081447;28;45380;-69
2021/12/26 04:30:21;;;;;;;;;20.75;18.50;;;;;12.20;71.84;99904.34;5080818;28;45331;-69
2021/12/26 04:32:47;;;;;;;;;24.75;21.50;;;;;12.25;71.89;99904.13;5081382;28;45716;-68
2021/12/26 04:35:14;;;;;;;;;24.25;24.00;;;;;12.23;71.78;99911.38;5081015;28;46193;-69
2021/12/26 04:37:39;;;;;;;;;22.50;22.50;;;;;12.20;72.00;99909.72;5081213;28;45362;-69
2021/12/26 04:40:08;;;;;;;;;23.00;20.00;;;;;12.23;71.89;99909.56;5080936;28;45335;-69
2021/12/26 04:42:34;;;;;;;;;22.75;19.25;;;;;12.21;71.74;99910.56;5081193;28;45733;-69
2021/12/26 04:44:59;;;;;;;;;27.25;20.75;;;;;12.17;71.96;99906.34;5080550;28;45486;-69
2021/12/26 04:47:25;;;;;;;;;23.50;22.00;;;;;12.14;71.90;99904.66;5080987;28;45286;-68
2021/12/26 04:49:50;;;;;;;;;23.00;21.75;;;;;12.17;72.18;99904.50;5080710;28;45329;-69
2021/12/26 04:52:16;;;;;;;;;26.00;23.00;;;;;12.19;71.85;99904.44;5080882;28;45323;-69
2021/12/26 04:54:41;;;;;;;;;24.00;22.50;;;;;12.16;72.06;99896.56;5080721;28;46335;-69
2021/12/26 04:57:07;;;;;;;;;25.50;24.50;;;;;12.15;72.12;99898.38;5080878;28;45363;-69
2021/12/26 04:59:32;;;;;;;;;26.75;24.75;;;;;12.11;72.12;99890.59;5080669;28;45836;-69
2021/12/26 05:01:58;;;;;;;;;24.50;22.25;;;;;12.12;72.09;99903.91;5080717;28;45345;-69
2021/12/26 05:04:23;;;;;;;;;23.75;18.25;;;;;12.09;72.24;99888.00;5062333;28;46110;-69
2021/12/26 05:06:49;;;;;;;;;21.75;20.25;;;;;12.07;72.25;99891.72;5080710;28;45343;-69
2021/12/26 05:09:14;;;;;;;;;28.25;24.75;;;;;12.07;72.55;99889.91;5080766;28;45364;-69
2021/12/26 05:11:40;;;;;;;;;21.75;19.25;;;;;12.09;72.34;99884.47;5080369;28;45577;-69
2021/12/26 05:14:06;;;;;;;;;23.75;21.00;;;;;12.10;72.23;99894.22;5080455;28;45253;-69
2021/12/26 05:16:31;;;;;;;;;22.00;20.50;;;;;12.11;72.46;99891.47;5080383;28;45402;-69
2021/12/26 05:18:57;;;;;;;;;21.00;19.25;;;;;12.11;72.11;99891.47;5080601;28;45304;-69
2021/12/26 05:21:23;;;;;;;;;22.50;21.50;;;;;12.09;72.44;99888.00;5080473;28;45220;-69
2021/12/26 05:23:48;;;;;;;;;22.25;21.50;;;;;12.10;72.26;99886.22;5080315;28;45220;-69
2021/12/26 05:26:13;;;;;;;;;20.00;19.00;;;;;12.07;72.42;99878.34;5080430;28;45195;-69
2021/12/26 05:28:39;;;;;;;;;25.50;23.25;;;;;12.10;72.43;99883.53;5080534;28;45275;-69
2021/12/26 05:31:04;;;;;;;;;25.50;23.75;;;;;12.13;72.23;99884.22;5079888;28;45355;-69
2021/12/26 05:33:29;;;;;;;;;23.00;21.75;;;;;12.10;72.15;99876.38;5078780;28;46583;-69
2021/12/26 05:35:55;;;;;;;;;27.25;26.00;;;;;12.13;72.12;99883.34;5080499;28;45325;-69
2021/12/26 05:38:20;;;;;;;;;29.75;23.50;;;;;12.12;72.23;99877.13;5080313;28;45369;-69
2021/12/26 05:40:46;;;;;;;;;31.50;26.75;;;;;12.12;72.49;99878.97;5080104;28;45453;-69
2021/12/26 05:43:11;;;;;;;;;30.00;25.25;;;;;12.06;72.21;99872.09;5079911;28;46402;-69
2021/12/26 05:45:38;;;;;;;;;26.50;23.25;;;;;12.13;72.44;99878.00;5080025;28;45350;-69
2021/12/26 05:48:03;;;;;;;;;25.75;24.00;;;;;12.11;72.70;99880.78;5080061;28;45310;-69
2021/12/26 05:50:29;;;;;;;;;24.00;21.25;;;;;12.12;72.48;99887.00;5080020;28;45217;-69
2021/12/26 05:52:54;;;;;;;;;21.25;21.25;;;;;12.11;72.25;99878.09;5079761;28;45313;-69
2021/12/26 05:55:20;;;;;;;;;21.50;20.00;;;;;12.13;72.10;99884.22;5080074;28;45186;-69
2021/12/26 05:57:46;;;;;;;;;22.25;19.50;;;;;12.10;72.04;99879.03;5080076;28;45829;-69
2021/12/26 06:00:15;;;;;;;;;26.50;23.75;;;;;12.12;72.55;99881.63;5079883;28;45880;-69
2021/12/26 06:02:41;;;;;;;;;22.75;20.00;;;;;12.10;72.25;99884.38;5079682;28;45626;-69
2021/12/26 06:05:06;;;;;;;;;20.75;20.75;;;;;12.10;72.39;99879.03;5080020;28;45405;-69
2021/12/26 06:07:32;;;;;;;;;22.00;19.75;;;;;12.08;72.44;99880.94;5079911;28;45391;-69
2021/12/26 06:09:57;;;;;;;;;24.00;17.75;;;;;12.09;72.59;99877.28;5079978;28;45255;-69
2021/12/26 06:12:23;;;;;;;;;21.75;19.00;;;;;12.12;72.18;99877.13;5079363;28;45303;-69
2021/12/26 06:14:48;;;;;;;;;21.75;17.75;;;;;12.13;72.42;99878.00;5079617;28;45308;-69
2021/12/26 06:17:13;;;;;;;;;18.75;18.25;;;;;12.11;72.42;99879.91;5079932;28;45310;-69
2021/12/26 06:19:39;;;;;;;;;19.00;16.50;;;;;12.11;72.32;99882.56;5079880;28;45299;-69
2021/12/26 06:22:06;;;;;;;;;19.00;17.00;;;;;12.10;72.50;99879.03;5079465;28;45402;-69
2021/12/26 06:24:32;;;;;;;;;24.25;17.00;;;;;12.14;72.51;99879.75;5079884;28;45518;-69
2021/12/26 06:26:57;;;;;;;;;19.25;17.75;;;;;12.17;72.48;99876.91;5079626;28;45247;-69
2021/12/26 06:29:22;;;;;;;;;18.25;17.50;;;;;12.13;72.39;99876.22;5079508;28;45260;-69
2021/12/26 06:31:48;;;;;;;;;17.50;16.75;;;;;12.13;72.55;99880.66;5079353;28;45434;-69
2021/12/26 06:34:14;;;;;;;;;19.50;15.50;;;;;12.13;72.76;99878.88;5079630;28;45275;-69
2021/12/26 06:36:39;;;;;;;;;20.25;16.00;;;;;12.12;72.47;99874.47;5079615;28;45350;-69
2021/12/26 06:39:05;;;;;;;;;16.00;16.00;;;;;12.10;72.56;99871.00;5079569;28;45358;-69
2021/12/26 06:41:31;;;;;;;;;20.00;16.25;;;;;12.09;72.51;99874.63;5081968;28;46398;-69
2021/12/26 06:43:57;;;;;;;;;18.00;16.00;;;;;12.06;72.53;99869.44;5082898;28;45397;-69
2021/12/26 06:46:22;;;;;;;;;17.75;15.75;;;;;12.08;72.72;99878.25;5082754;28;45484;-69
2021/12/26 06:48:48;;;;;;;;;19.00;17.25;;;;;12.09;72.89;99871.94;5082616;28;45451;-69
2021/12/26 06:51:13;;;;;;;;;17.00;16.50;;;;;12.14;72.55;99872.56;5082684;28;45300;-69
2021/12/26 06:53:39;;;;;;;;;18.50;17.75;;;;;12.15;72.43;99868.97;5082613;28;45254;-69
2021/12/26 06:56:05;;;;;;;;;15.50;13.75;;;;;12.18;72.77;99873.28;5082703;28;45205;-69
2021/12/26 06:58:31;;;;;;;;;17.50;15.25;;;;;12.15;72.55;99871.63;5082964;28;45315;-69
2021/12/26 07:00:58;;;;;;;;;20.00;14.25;;;;;12.17;72.61;99872.41;5082188;28;47473;-69
2021/12/26 07:03:23;;;;;;;;;19.25;15.50;;;;;12.18;72.59;99875.97;5082820;28;45286;-69
2021/12/26 07:05:49;;;;;;;;;14.50;13.25;;;;;12.14;72.69;99869.91;5082722;28;45216;-69
2021/12/26 07:08:14;;;;;;;;;24.25;18.25;;;;;12.15;72.78;99871.63;5082690;28;45514;-69
2021/12/26 07:10:39;;;;;;;;;17.50;17.25;;;;;12.15;72.81;99871.63;5082073;28;46070;-69
2021/12/26 07:13:05;;;;;;;;;21.50;17.50;;;;;12.08;72.89;99858.66;5082386;28;45357;-69
2021/12/26 07:15:30;;;;;;;;;21.25;16.50;;;;;12.16;72.69;99868.03;5064012;28;45343;-69
2021/12/26 07:17:56;;;;;;;;;17.00;15.25;;;;;12.14;72.73;99875.25;5082575;28;45483;-69
2021/12/26 07:20:21;;;;;;;;;16.50;15.75;;;;;12.13;73.15;99868.19;5082079;28;45313;-69
2021/12/26 07:22:47;;;;;;;;;16.25;14.50;;;;;12.18;73.01;99875.97;5082505;28;45376;-69
2021/12/26 07:25:13;;;;;;;;;18.00;16.25;;;;;12.19;72.93;99883.88;5082283;28;45340;-69
2021/12/26 07:27:40;;;;;;;;;18.75;16.75;;;;;12.21;72.92;99887.38;5082531;28;45552;-69
2021/12/26 07:30:07;;;;;;;;;14.25;13.75;;;;;12.20;72.88;99885.63;5081640;28;45228;-69
2021/12/26 07:32:32;;;;;;;;;20.75;17.25;;;;;12.22;73.03;99888.22;5063884;28;45209;-69
2021/12/26 07:34:58;;;;;;;;;15.50;13.50;;;;;12.28;72.80;99892.38;5082216;28;45205;-69
2021/12/26 07:37:25;;;;;;;;;21.50;18.75;;;;;12.28;73.01;99892.38;5082221;28;45453;-69
2021/12/26 07:39:50;;;;;;;;;19.25;16.00;;;;;12.26;73.00;99884.44;5081738;28;45275;-69
2021/12/26 07:42:16;;;;;;;;;14.75;14.75;;;;;12.29;72.87;99894.97;5082002;28;45303;-69
2021/12/26 07:44:41;;;;;;;;;15.00;15.00;;;;;12.28;72.96;99892.38;5081792;28;45239;-69
2021/12/26 07:47:07;;;;;;;;;17.50;15.75;;;;;12.25;73.04;99881.88;5082009;28;45303;-69
2021/12/26 07:49:32;;;;;;;;;17.25;11.75;;;;;12.29;73.11;99880.75;5081701;28;45313;-69
2021/12/26 07:51:58;;;;;;;;;14.50;14.00;;;;;12.30;72.89;99880.66;5080663;28;45299;-69
2021/12/26 07:54:25;;;;;;;;;16.50;14.75;;;;;12.28;73.13;99885.25;5081750;28;45391;-69
2021/12/26 07:56:52;;;;;;;;;17.50;14.75;;;;;12.30;73.25;99890.50;5081830;28;45224;-69
2021/12/26 07:59:17;;;;;;;;;17.25;14.75;;;;;12.30;73.16;99887.84;5081385;28;45318;-69
2021/12/26 08:01:43;;;;;;;;;14.50;12.25;;;;;12.32;72.93;99889.47;5081880;28;45194;-69
2021/12/26 08:04:10;;;;;;;;;12.00;11.75;;;;;12.35;72.82;99899.16;5081756;28;45226;-69
2021/12/26 08:06:36;;;;;;;;;17.25;13.25;;;;;12.35;73.24;99899.16;5081850;28;45445;-69
2021/12/26 08:09:01;;;;;;;;;15.75;14.75;;;;;12.37;72.98;99906.13;5081449;28;46401;-69
2021/12/26 08:11:26;;;;;;;;;18.00;13.75;;;;;12.37;73.10;99903.47;5081511;28;45305;-69
2021/12/26 08:13:52;;;;;;;;;19.75;18.50;;;;;12.37;73.13;99902.59;5081446;28;45381;-69
2021/12/26 08:16:18;;;;;;;;;16.25;15.25;;;;;12.40;72.86;99902.44;5081371;28;45445;-69
2021/12/26 08:18:43;;;;;;;;;12.75;12.50;;;;;12.41;73.03;99898.81;5081337;28;46185;-69
2021/12/26 08:21:09;;;;;;;;;15.75;13.75;;;;;12.42;73.08;99903.22;5081519;28;45405;-69
2021/12/26 08:23:35;;;;;;;;;17.75;15.75;;;;;12.43;73.08;99899.63;5081627;28;45290;-69
2021/12/26 08:26:00;;;;;;;;;15.25;14.25;;;;;12.41;73.21;99896.13;5081310;28;45432;-69
2021/12/26 08:28:26;;;;;;;;;20.00;16.00;;;;;12.42;73.29;99904.09;5081269;28;45443;-69
2021/12/26 08:30:52;;;;;;;;;20.00;17.75;;;;;12.44;73.23;99903.16;5080852;28;45188;-69
2021/12/26 08:33:17;;;;;;;;;18.25;16.50;;;;;12.46;73.09;99904.78;5081188;28;45264;-69
2021/12/26 08:35:45;;;;;;;;;16.75;14.75;;;;;12.47;73.19;99903.00;5063011;28;45446;-69
2021/12/26 08:38:13;;;;;;;;;16.00;13.75;;;;;12.49;73.18;99912.66;5081015;28;45638;-69
2021/12/26 08:40:38;;;;;;;;;16.75;16.50;;;;;12.48;73.39;99913.63;5081009;28;45370;-69
2021/12/26 08:43:06;;;;;;;;;16.25;15.25;;;;;12.49;73.07;99918.00;5081164;28;45300;-69
2021/12/26 08:45:32;;;;;;;;;16.00;14.75;;;;;12.50;73.13;99925.09;5080890;28;45453;-69
2021/12/26 08:47:57;;;;;;;;;14.75;13.00;;;;;12.51;73.15;99918.81;5080790;28;46702;-69
2021/12/26 08:50:25;;;;;;;;;17.00;15.50;;;;;12.53;73.13;99924.06;5080805;28;45252;-69
2021/12/26 08:52:51;;;;;;;;;18.25;14.00;;;;;12.49;73.09;99920.69;5080592;28;45256;-69
2021/12/26 08:55:17;;;;;;;;;16.00;14.25;;;;;12.52;73.14;99933.03;5080852;28;45351;-69
2021/12/26 08:57:42;;;;;;;;;15.50;15.25;;;;;12.52;73.29;99927.69;5080785;28;45673;-69
2021/12/26 09:00:10;;;;;;;;;19.50;15.75;;;;;12.49;73.33;99922.50;5080545;28;45372;-69
2021/12/26 09:02:37;;;;;;;;;20.75;15.25;;;;;12.51;73.50;99923.28;5080601;28;45260;-69
2021/12/26 09:05:03;;;;;;;;;20.75;15.50;;;;;12.54;73.30;99929.31;5080764;28;46099;-69
2021/12/26 09:07:31;;;;;;;;;15.75;15.00;;;;;12.59;73.19;99937.13;5080732;28;47332;-69
2021/12/26 09:09:57;;;;;;;;;16.75;13.25;;;;;12.58;73.16;99930.06;5080620;28;45370;-69
2021/12/26 09:12:23;;;;;;;;;15.75;15.75;;;;;12.59;73.29;99934.44;5080554;28;45355;-69
2021/12/26 09:14:48;;;;;;;;;17.75;17.75;;;;;12.65;73.26;99941.31;5080384;28;45574;-69
2021/12/26 09:17:14;;;;;;;;;15.25;15.25;;;;;12.65;73.32;99946.66;5079129;28;47511;-69
2021/12/26 09:19:39;;;;;;;;;13.75;13.50;;;;;12.64;73.17;99950.25;5080734;28;45277;-69
2021/12/26 09:22:07;;;;;;;;;15.25;14.50;;;;;12.62;73.16;99941.47;5080529;28;45366;-69
2021/12/26 09:24:33;;;;;;;;;14.75;12.00;;;;;12.66;73.24;99953.72;5080561;28;45546;-69
2021/12/26 09:26:58;;;;;;;;;13.75;13.25;;;;;12.66;73.32;99951.91;5080013;28;46008;-69
2021/12/26 09:29:24;;;;;;;;;19.00;15.75;;;;;12.68;73.36;99946.47;5080383;28;45445;-69
2021/12/26 09:31:50;;;;;;;;;16.00;15.75;;;;;12.69;73.28;99951.75;5080342;28;45519;-69
2021/12/26 09:34:16;;;;;;;;;17.25;15.75;;;;;12.67;73.35;99948.28;5080343;28;45244;-69
2021/12/26 09:36:42;;;;;;;;;14.50;13.75;;;;;12.68;73.20;99952.72;5080046;28;45380;-69
2021/12/26 09:39:08;;;;;;;;;17.50;15.75;;;;;12.69;73.64;99946.38;5080346;28;45376;-69
2021/12/26 09:41:34;;;;;;;;;17.25;15.00;;;;;12.74;73.29;99957.72;5080303;28;45257;-69
2021/12/26 09:43:59;;;;;;;;;14.25;13.75;;;;;12.67;73.18;99942.94;5080369;28;45457;-69
2021/12/26 09:46:28;;;;;;;;;13.75;12.75;;;;;12.75;72.97;99958.59;5061774;28;48444;-69
2021/12/26 09:48:53;;;;;;;;;16.25;13.00;;;;;12.74;73.31;99956.84;5080049;28;45300;-69
2021/12/26 09:51:19;;;;;;;;;14.75;13.00;;;;;12.74;73.11;99957.72;5080187;28;45490;-69
2021/12/26 09:53:44;;;;;;;;;16.50;15.75;;;;;12.77;73.17;99959.38;5079933;28;45434;-69
2021/12/26 09:56:10;;;;;;;;;15.00;12.00;;;;;12.78;73.31;99956.63;5079774;28;45316;-69
2021/12/26 09:58:51;;;;;;;;;13.00;12.50;;;;;12.79;73.24;99962.81;5080107;28;45326;-69
2021/12/26 10:01:34;;;;;;;;;14.00;14.00;;;;;12.80;73.22;99953.84;5079917;28;45362;-69
2021/12/26 10:04:17;;;;;;;;;13.00;13.00;;;;;12.84;73.13;99959.91;5080145;28;45343;-69
2021/12/26 10:06:43;;;;;;;;;13.00;12.00;;;;;12.81;73.24;99960.91;5079857;28;46139;-69
2021/12/26 10:09:09;;;;;;;;;15.50;12.00;;;;;12.80;73.31;99961.88;5079871;28;45326;-69
2021/12/26 10:11:41;;;;;;;;;14.50;12.00;;;;;12.80;73.17;99959.22;5079748;28;45477;-69
2021/12/26 10:14:09;;;;;;;;;14.00;14.00;;;;;12.81;73.34;99963.59;5079629;28;45342;-69
2021/12/26 10:16:38;;;;;;;;;12.00;10.75;;;;;12.80;73.19;99948.50;5082654;28;45422;-69
2021/12/26 10:19:05;;;;;;;;;14.25;12.75;;;;;12.81;73.40;99949.34;5083552;28;45536;-69
2021/12/26 10:22:03;;;;;;;;;13.75;13.75;;;;;12.82;73.38;99940.38;5083477;28;45322;-69
2021/12/26 10:24:42;;;;;;;;;12.50;11.25;;;;;12.78;73.43;99942.38;5082879;28;45650;-69
2021/12/26 10:27:22;;;;;;;;;14.25;11.75;;;;;12.76;73.29;99928.16;5083031;28;45208;-69
2021/12/26 10:29:53;;;;;;;;;17.00;13.25;;;;;12.76;73.63;99928.16;5082889;28;45662;-69
2021/12/26 10:32:31;;;;;;;;;13.00;13.00;;;;;12.77;73.52;99933.44;5083161;28;45250;-69
2021/12/26 10:35:05;;;;;;;;;11.75;11.75;;;;;12.71;73.75;99924.88;5083042;28;45358;-69
2021/12/26 10:37:51;;;;;;;;;13.75;13.00;;;;;12.79;73.57;99942.25;5083048;28;45449;-69
2021/12/26 10:40:28;;;;;;;;;11.00;11.00;;;;;12.79;73.72;99934.22;5082686;28;45317;-69
2021/12/26 10:42:58;;;;;;;;;15.25;14.25;;;;;12.80;73.64;99932.44;5083130;28;45314;-69
2021/12/26 10:45:26;;;;;;;;;15.00;12.00;;;;;12.83;73.46;99937.63;5082877;28;45211;-69
2021/12/26 10:48:00;;;;;;;;;13.25;12.50;;;;;12.85;73.79;99938.41;5082624;28;45499;-69
2021/12/26 10:50:28;;;;;;;;;12.25;11.50;;;;;12.87;73.62;99931.13;5082827;28;45573;-69
2021/12/26 10:52:57;;;;;;;;;14.50;14.50;;;;;12.88;73.70;99930.19;5082600;28;45557;-69
2021/12/26 10:55:55;;;;;;;;;13.00;13.00;;;;;12.88;73.67;99926.63;5082807;28;45454;-69
2021/12/26 10:58:21;;;;;;;;;16.25;15.50;;;;;12.83;73.75;99918.88;5037805;28;45491;-69
2021/12/26 11:00:50;;;;;;;;;10.25;10.25;;;;;12.87;73.80;99922.25;5082362;28;45270;-69
2021/12/26 11:03:24;;;;;;;;;12.50;12.00;;;;;12.86;73.77;99924.03;5082926;28;45458;-69
2021/12/26 11:05:55;;;;;;;;;13.00;13.00;;;;;12.80;73.78;99902.97;5082676;28;45224;-69
2021/12/26 11:08:30;;;;;;;;;13.25;11.75;;;;;12.90;73.84;99919.41;5082682;28;45444;-69
2021/12/26 11:10:57;;;;;;;;;14.50;13.25;;;;;12.91;73.73;99918.44;5082250;28;45390;-69
2021/12/26 11:13:31;;;;;;;;;13.25;12.50;;;;;12.91;74.03;99916.63;5082601;28;45349;-69
2021/12/26 11:16:04;;;;;;;;;14.25;13.25;;;;;12.93;73.82;99917.41;5082217;28;45365;-69
2021/12/26 11:18:29;;;;;;;;;15.50;13.50;;;;;12.94;73.81;99919.13;5082358;28;45450;-69